createdAt,value
2023-01-21T19:22:19.595Z,47.47
2023-01-21T19:24:49.239Z,58.13
2023-01-21T19:27:25.499Z,54.97
2023-01-21T19:29:52.181Z,50.80
2023-01-21T19:32:18.909Z,44.47
2023-01-21T19:34:45.517Z,50.40
2023-01-21T19:37:17.972Z,43.90
2023-01-21T19:39:44.682Z,47.57
2023-01-21T19:42:13.417Z,44.83
2023-01-21T19:44:40.304Z,45.70
2023-01-21T19:47:18.504Z,45.37
2023-01-21T19:49:46.007Z,46.10
2023-01-21T19:52:14.272Z,38.30
2023-01-21T19:54:42.265Z,43.67
2023-01-21T19:57:14.732Z,44.93
2023-01-21T19:59:45.820Z,47.70
2023-01-21T20:02:13.005Z,50.47
2023-01-21T20:04:39.835Z,43.00
2023-01-21T20:07:07.190Z,45.13
2023-01-21T20:09:34.959Z,50.57
2023-01-21T20:12:03.484Z,44.57
2023-01-21T20:14:33.096Z,46.50
2023-01-21T20:16:59.806Z,42.77
2023-01-21T20:19:26.353Z,44.57
2023-01-21T20:22:02.151Z,45.83
2023-01-21T20:24:33.350Z,36.53
2023-01-21T20:27:02.269Z,41.67
2023-01-21T20:29:30.327Z,49.37
2023-01-21T20:31:57.050Z,46.53
2023-01-21T20:34:24.676Z,45.70
2023-01-21T20:36:51.824Z,42.50
2023-01-21T20:39:18.428Z,45.77
2023-01-21T20:41:45.104Z,42.57
2023-01-21T20:44:11.865Z,42.77
2023-01-21T20:46:39.270Z,48.33
2023-01-21T20:49:06.211Z,42.47
2023-01-21T20:51:33.075Z,36.73
2023-01-21T20:53:59.756Z,41.93
2023-01-21T20:56:32.831Z,41.73
2023-01-21T20:59:00.112Z,43.20
2023-01-21T21:01:28.434Z,39.07
2023-01-21T21:03:55.051Z,38.73
2023-01-21T21:06:31.183Z,38.10
2023-01-21T21:08:58.266Z,38.33
2023-01-21T21:11:25.164Z,41.53
2023-01-21T21:13:52.565Z,35.67
2023-01-21T21:16:27.556Z,38.43
2023-01-21T21:18:54.520Z,36.70
2023-01-21T21:21:23.660Z,36.80
2023-01-21T21:23:52.081Z,40.20
2023-01-21T21:26:25.711Z,47.53
2023-01-21T21:28:57.424Z,41.30
2023-01-21T21:31:25.896Z,42.07
2023-01-21T21:33:52.679Z,37.07
2023-01-21T21:36:23.048Z,38.80
2023-01-21T21:38:51.711Z,39.27
2023-01-21T21:41:39.309Z,41.40
2023-01-21T21:44:08.433Z,38.03
2023-01-21T21:46:55.325Z,39.63
2023-01-21T21:49:22.152Z,37.83
2023-01-21T21:51:48.800Z,41.70
2023-01-21T21:54:16.495Z,44.57
2023-01-21T21:56:43.355Z,35.70
2023-01-21T21:59:12.205Z,38.83
2023-01-21T22:01:40.508Z,36.93
2023-01-21T22:04:07.179Z,51.97
2023-01-21T22:06:33.836Z,44.83
2023-01-21T22:09:00.757Z,45.97
2023-01-21T22:11:28.674Z,37.93
2023-01-21T22:13:56.561Z,43.60
2023-01-21T22:16:28.580Z,45.10
2023-01-21T22:18:56.792Z,42.70
2023-01-21T22:21:26.628Z,41.07
2023-01-21T22:23:54.505Z,37.30
2023-01-21T22:26:24.305Z,41.97
2023-01-21T22:28:54.031Z,40.60
2023-01-21T22:31:23.577Z,38.37
2023-01-21T22:33:50.703Z,52.33
2023-01-21T22:36:20.264Z,42.53
2023-01-21T22:38:47.482Z,38.57
2023-01-21T22:41:16.004Z,41.37
2023-01-21T22:43:44.786Z,40.07
2023-01-21T22:46:14.108Z,35.50
2023-01-21T22:48:42.032Z,35.90
2023-01-21T22:51:11.946Z,37.40
2023-01-21T22:53:40.172Z,36.57
2023-01-21T22:56:07.500Z,42.23
2023-01-21T22:58:34.834Z,38.70
2023-01-21T23:01:02.130Z,39.53
2023-01-21T23:03:30.659Z,39.07
2023-01-21T23:06:08.196Z,37.27
2023-01-21T23:08:36.972Z,35.40
2023-01-21T23:11:05.254Z,39.07
2023-01-21T23:13:33.634Z,39.40
2023-01-21T23:16:01.042Z,37.20
2023-01-21T23:18:29.351Z,39.40
2023-01-21T23:20:56.494Z,37.33
2023-01-21T23:23:23.946Z,40.87
2023-01-21T23:25:50.598Z,37.30
2023-01-21T23:28:17.671Z,36.63
2023-01-21T23:30:44.899Z,35.30
2023-01-21T23:33:12.711Z,38.37
2023-01-21T23:35:39.663Z,37.23
2023-01-21T23:38:06.702Z,37.57
2023-01-21T23:40:33.625Z,32.87
2023-01-21T23:43:00.669Z,32.30
2023-01-21T23:45:27.758Z,33.70
2023-01-21T23:47:54.985Z,32.70
2023-01-21T23:50:21.832Z,31.90
2023-01-21T23:52:48.500Z,36.83
2023-01-21T23:55:15.217Z,30.17
2023-01-21T23:57:41.825Z,28.57
